sensor_id;sensor_type;location;lat;lon;timestamp;pressure;altitude;pressure_sealevel;temperature;humidity
48424;BME280;34232;42.502;26.014;2022-08-23T00:00:36;99310.25;;;25.33;81.11
48424;BME280;34232;42.502;26.014;2022-08-23T00:03:01;99316.63;;;25.27;80.49
48424;BME280;34232;42.502;26.014;2022-08-23T00:05:26;99320.50;;;25.19;81.22
48424;BME280;34232;42.502;26.014;2022-08-23T00:07:52;99311.38;;;25.20;80.73
48424;BME280;34232;42.502;26.014;2022-08-23T00:10:17;99317.81;;;25.19;81.49
48424;BME280;34232;42.502;26.014;2022-08-23T00:12:44;99315.94;;;25.20;80.64
48424;BME280;34232;42.502;26.014;2022-08-23T00:15:10;99326.13;;;25.18;81.43
48424;BME280;34232;42.502;26.014;2022-08-23T00:17:36;99319.50;;;25.08;82.22
48424;BME280;34232;42.502;26.014;2022-08-23T00:20:12;99319.03;;;25.12;81.97
48424;BME280;34232;42.502;26.014;2022-08-23T00:22:37;99316.56;;;25.10;81.88
48424;BME280;34232;42.502;26.014;2022-08-23T00:25:04;99313.06;;;25.09;81.40
48424;BME280;34232;42.502;26.014;2022-08-23T00:27:30;99310.00;;;25.06;81.24
48424;BME280;34232;42.502;26.014;2022-08-23T00:29:57;99316.69;;;25.03;80.90
48424;BME280;34232;42.502;26.014;2022-08-23T00:32:30;99319.63;;;25.02;80.64
48424;BME280;34232;42.502;26.014;2022-08-23T00:34:56;99310.16;;;24.99;80.45
48424;BME280;34232;42.502;26.014;2022-08-23T00:37:22;99310.63;;;24.96;81.08
48424;BME280;34232;42.502;26.014;2022-08-23T00:39:47;99313.56;;;24.95;80.69
48424;BME280;34232;42.502;26.014;2022-08-23T00:45:09;99302.69;;;24.78;81.72
48424;BME280;34232;42.502;26.014;2022-08-23T00:48:09;99308.06;;;24.78;81.90
48424;BME280;34232;42.502;26.014;2022-08-23T00:53:22;99309.59;;;24.74;82.31
48424;BME280;34232;42.502;26.014;2022-08-23T00:55:49;99305.72;;;24.70;81.91
48424;BME280;34232;42.502;26.014;2022-08-23T00:58:18;99309.72;;;24.67;81.96
48424;BME280;34232;42.502;26.014;2022-08-23T01:00:43;99305.84;;;24.63;81.86
48424;BME280;34232;42.502;26.014;2022-08-23T01:03:09;99299.53;;;24.58;81.70
48424;BME280;34232;42.502;26.014;2022-08-23T01:05:42;99306.44;;;24.54;82.06
48424;BME280;34232;42.502;26.014;2022-08-23T01:08:10;99307.16;;;24.49;82.37
48424;BME280;34232;42.502;26.014;2022-08-23T01:10:38;99318.63;;;24.45;82.73
48424;BME280;34232;42.502;26.014;2022-08-23T01:13:07;99321.78;;;24.41;83.08
48424;BME280;34232;42.502;26.014;2022-08-23T01:15:37;99317.69;;;24.27;83.68
48424;BME280;34232;42.502;26.014;2022-08-23T01:18:06;99324.13;;;24.26;84.53
48424;BME280;34232;42.502;26.014;2022-08-23T01:20:37;99325.88;;;24.32;84.21
48424;BME280;34232;42.502;26.014;2022-08-23T01:23:28;99329.16;;;24.34;83.87
48424;BME280;34232;42.502;26.014;2022-08-23T01:25:52;99331.84;;;24.34;84.37
48424;BME280;34232;42.502;26.014;2022-08-23T01:28:17;99335.09;;;24.36;83.87
48424;BME280;34232;42.502;26.014;2022-08-23T01:30:43;99335.69;;;24.38;83.58
48424;BME280;34232;42.502;26.014;2022-08-23T01:33:10;99336.50;;;24.39;83.09
48424;BME280;34232;42.502;26.014;2022-08-23T01:35:37;99335.69;;;24.38;83.34
48424;BME280;34232;42.502;26.014;2022-08-23T01:38:04;99335.59;;;24.33;84.09
48424;BME280;34232;42.502;26.014;2022-08-23T01:40:29;99330.22;;;24.33;84.05
48424;BME280;34232;42.502;26.014;2022-08-23T01:42:56;99329.03;;;24.29;84.03
48424;BME280;34232;42.502;26.014;2022-08-23T01:45:21;99337.22;;;24.34;83.88
48424;BME280;34232;42.502;26.014;2022-08-23T01:47:47;99336.75;;;24.37;83.84
48424;BME280;34232;42.502;26.014;2022-08-23T01:50:13;99342.72;;;24.39;83.35
48424;BME280;34232;42.502;26.014;2022-08-23T01:52:39;99329.50;;;24.38;83.15
48424;BME280;34232;42.502;26.014;2022-08-23T01:55:05;99335.91;;;24.37;83.29
48424;BME280;34232;42.502;26.014;2022-08-23T01:57:30;99333.22;;;24.37;82.98
48424;BME280;34232;42.502;26.014;2022-08-23T01:59:56;99328.66;;;24.37;82.88
48424;BME280;34232;42.502;26.014;2022-08-23T02:02:22;99333.22;;;24.37;82.32
48424;BME280;34232;42.502;26.014;2022-08-23T02:04:48;99323.53;;;24.36;82.74
48424;BME280;34232;42.502;26.014;2022-08-23T02:07:13;99330.22;;;24.33;83.29
48424;BME280;34232;42.502;26.014;2022-08-23T02:09:39;99337.09;;;24.29;83.33
48424;BME280;34232;42.502;26.014;2022-08-23T02:12:04;99333.38;;;24.30;83.77
48424;BME280;34232;42.502;26.014;2022-08-23T02:14:29;99329.03;;;24.29;83.64
48424;BME280;34232;42.502;26.014;2022-08-23T02:16:55;99330.09;;;24.28;83.42
48424;BME280;34232;42.502;26.014;2022-08-23T02:19:20;99332.19;;;24.26;83.40
48424;BME280;34232;42.502;26.014;2022-08-23T02:21:45;99327.84;;;24.25;83.50
48424;BME280;34232;42.502;26.014;2022-08-23T02:24:13;99333.22;;;24.25;83.67
48424;BME280;34232;42.502;26.014;2022-08-23T02:26:39;99330.16;;;24.22;83.51
48424;BME280;34232;42.502;26.014;2022-08-23T02:29:05;99327.69;;;24.20;82.71
48424;BME280;34232;42.502;26.014;2022-08-23T02:31:31;99340.44;;;24.13;83.93
48424;BME280;34232;42.502;26.014;2022-08-23T02:33:56;99342.09;;;24.14;83.56
48424;BME280;34232;42.502;26.014;2022-08-23T02:36:22;99345.81;;;24.13;83.29
48424;BME280;34232;42.502;26.014;2022-08-23T02:38:47;99339.84;;;24.11;83.55
48424;BME280;34232;42.502;26.014;2022-08-23T02:41:13;99343.13;;;24.13;82.74
48424;BME280;34232;42.502;26.014;2022-08-23T02:43:40;99339.84;;;24.11;83.02
48424;BME280;34232;42.502;26.014;2022-08-23T02:46:05;99335.16;;;24.06;83.10
48424;BME280;34232;42.502;26.014;2022-08-23T02:48:32;99346.16;;;24.05;83.32
48424;BME280;34232;42.502;26.014;2022-08-23T02:51:01;99344.50;;;24.04;83.91
48424;BME280;34232;42.502;26.014;2022-08-23T02:53:28;99347.44;;;24.02;83.97
48424;BME280;34232;42.502;26.014;2022-08-23T02:55:53;99349.06;;;24.03;83.68
48424;BME280;34232;42.502;26.014;2022-08-23T02:58:19;99348.25;;;24.03;83.68
48424;BME280;34232;42.502;26.014;2022-08-23T03:00:45;99352.00;;;24.02;82.89
48424;BME280;34232;42.502;26.014;2022-08-23T03:03:11;99364.88;;;24.00;83.74
48424;BME280;34232;42.502;26.014;2022-08-23T03:05:36;99370.25;;;24.00;83.72
48424;BME280;34232;42.502;26.014;2022-08-23T03:08:01;99368.31;;;23.89;83.46
48424;BME280;34232;42.502;26.014;2022-08-23T03:10:27;99368.47;;;23.94;83.48
48424;BME280;34232;42.502;26.014;2022-08-23T03:12:52;99362.03;;;23.95;83.30
48424;BME280;34232;42.502;26.014;2022-08-23T03:18:37;99360.41;;;23.94;82.58
48424;BME280;34232;42.502;26.014;2022-08-23T03:21:03;99357.94;;;23.92;82.28
48424;BME280;34232;42.502;26.014;2022-08-23T03:23:28;99366.22;;;23.91;82.45
48424;BME280;34232;42.502;26.014;2022-08-23T03:25:55;99366.22;;;23.91;82.56
48424;BME280;34232;42.502;26.014;2022-08-23T03:28:21;99377.44;;;23.88;82.91
48424;BME280;34232;42.502;26.014;2022-08-23T03:30:46;99378.25;;;23.88;83.08
48424;BME280;34232;42.502;26.014;2022-08-23T03:33:12;99379.56;;;23.86;83.40
48424;BME280;34232;42.502;26.014;2022-08-23T03:35:37;99384.94;;;23.86;83.56
48424;BME280;34232;42.502;26.014;2022-08-23T03:38:02;99379.31;;;23.87;83.71
48424;BME280;34232;42.502;26.014;2022-08-23T03:40:28;99389.00;;;23.88;83.49
48424;BME280;34232;42.502;26.014;2022-08-23T03:42:53;99379.06;;;23.89;83.37
48424;BME280;34232;42.502;26.014;2022-08-23T03:45:18;99379.06;;;23.89;83.01
48424;BME280;34232;42.502;26.014;2022-08-23T03:47:44;99380.72;;;23.90;82.99
48424;BME280;34232;42.502;26.014;2022-08-23T03:50:10;99387.97;;;23.89;83.03
48424;BME280;34232;42.502;26.014;2022-08-23T03:52:36;99380.72;;;23.90;82.78
48424;BME280;34232;42.502;26.014;2022-08-23T03:55:01;99387.13;;;23.89;83.32
48424;BME280;34232;42.502;26.014;2022-08-23T03:57:26;99384.44;;;23.89;83.37
48424;BME280;34232;42.502;26.014;2022-08-23T03:59:52;99398.94;;;23.88;83.91
48424;BME280;34232;42.502;26.014;2022-08-23T04:02:17;99400.97;;;23.92;84.13
48424;BME280;34232;42.502;26.014;2022-08-23T04:04:42;99395.94;;;23.96;83.73
48424;BME280;34232;42.502;26.014;2022-08-23T04:07:08;99408.94;;;23.99;84.02
48424;BME280;34232;42.502;26.014;2022-08-23T04:09:33;99402.50;;;24.00;83.39
48424;BME280;34232;42.502;26.014;2022-08-23T04:11:58;99406.97;;;24.06;83.57
48424;BME280;34232;42.502;26.014;2022-08-23T04:14:24;99402.16;;;24.08;83.41
48424;BME280;34232;42.502;26.014;2022-08-23T04:16:50;99399.03;;;24.11;83.00
48424;BME280;34232;42.502;26.014;2022-08-23T04:19:15;99401.72;;;24.11;83.55
48424;BME280;34232;42.502;26.014;2022-08-23T04:21:41;99398.56;;;24.14;83.68
48424;BME280;34232;42.502;26.014;2022-08-23T04:24:08;99400.22;;;24.15;84.19
48424;BME280;34232;42.502;26.014;2022-08-23T04:26:33;99400.22;;;24.15;83.58
48424;BME280;34232;42.502;26.014;2022-08-23T04:28:59;99399.75;;;24.18;82.90
48424;BME280;34232;42.502;26.014;2022-08-23T04:31:24;99397.22;;;24.23;83.10
48424;BME280;34232;42.502;26.014;2022-08-23T04:33:53;99397.94;;;24.30;83.32
48424;BME280;34232;42.502;26.014;2022-08-23T04:36:20;99408.25;;;24.33;83.23
48424;BME280;34232;42.502;26.014;2022-08-23T04:38:46;99404.00;;;24.37;83.58
48424;BME280;34232;42.502;26.014;2022-08-23T04:41:11;99404.16;;;24.42;83.14
48424;BME280;34232;42.502;26.014;2022-08-23T04:43:55;99412.59;;;24.46;83.16
48424;BME280;34232;42.502;26.014;2022-08-23T04:46:21;99412.94;;;24.50;83.08
48424;BME280;34232;42.502;26.014;2022-08-23T04:48:46;99413.63;;;24.57;82.39
48424;BME280;34232;42.502;26.014;2022-08-23T04:51:12;99417.63;;;24.66;82.43
48424;BME280;34232;42.502;26.014;2022-08-23T04:53:38;99420.78;;;24.74;81.95
48424;BME280;34232;42.502;26.014;2022-08-23T04:56:03;99417.41;;;24.79;82.63
48424;BME280;34232;42.502;26.014;2022-08-23T04:58:30;99420.19;;;24.84;82.74
48424;BME280;34232;42.502;26.014;2022-08-23T05:00:57;99424.88;;;24.89;82.68
48424;BME280;34232;42.502;26.014;2022-08-23T05:03:22;99420.09;;;24.91;82.48
48424;BME280;34232;42.502;26.014;2022-08-23T05:05:47;99427.72;;;24.94;81.27
48424;BME280;34232;42.502;26.014;2022-08-23T05:08:13;99426.44;;;24.96;81.47
48424;BME280;34232;42.502;26.014;2022-08-23T05:10:38;99427.03;;;24.98;81.72
48424;BME280;34232;42.502;26.014;2022-08-23T05:13:03;99429.50;;;25.00;82.81
48424;BME280;34232;42.502;26.014;2022-08-23T05:15:29;99432.75;;;25.02;83.34
48424;BME280;34232;42.502;26.014;2022-08-23T05:17:54;99429.81;;;25.03;83.72
48424;BME280;34232;42.502;26.014;2022-08-23T05:20:20;99428.31;;;25.07;83.35
48424;BME280;34232;42.502;26.014;2022-08-23T05:22:45;99446.22;;;25.14;83.45
48424;BME280;34232;42.502;26.014;2022-08-23T05:25:11;99442.56;;;25.20;82.55
48424;BME280;34232;42.502;26.014;2022-08-23T05:27:36;99453.00;;;25.28;81.82
48424;BME280;34232;42.502;26.014;2022-08-23T05:30:02;99449.94;;;25.36;80.09
48424;BME280;34232;42.502;26.014;2022-08-23T05:32:28;99451.81;;;25.35;78.31
48424;BME280;34232;42.502;26.014;2022-08-23T05:34:53;99445.56;;;25.58;80.79
48424;BME280;34232;42.502;26.014;2022-08-23T05:37:19;99445.88;;;25.73;79.43
48424;BME280;34232;42.502;26.014;2022-08-23T05:39:45;99448.41;;;25.92;81.53
48424;BME280;34232;42.502;26.014;2022-08-23T05:42:11;99458.41;;;26.08;78.85
48424;BME280;34232;42.502;26.014;2022-08-23T05:44:37;99453.28;;;26.23;77.97
48424;BME280;34232;42.502;26.014;2022-08-23T05:47:06;99448.56;;;26.30;75.03
48424;BME280;34232;42.502;26.014;2022-08-23T05:49:33;99457.34;;;26.37;76.07
48424;BME280;34232;42.502;26.014;2022-08-23T05:52:03;99451.75;;;26.27;75.24
48424;BME280;34232;42.502;26.014;2022-08-23T05:54:29;99459.66;;;26.29;75.47
48424;BME280;34232;42.502;26.014;2022-08-23T05:56:54;99450.66;;;26.57;75.63
48424;BME280;34232;42.502;26.014;2022-08-23T05:59:20;99461.56;;;26.62;74.07
48424;BME280;34232;42.502;26.014;2022-08-23T06:01:45;99466.38;;;26.76;74.10
48424;BME280;34232;42.502;26.014;2022-08-23T06:04:11;99462.03;;;26.92;74.35
48424;BME280;34232;42.502;26.014;2022-08-23T06:06:36;99459.63;;;27.12;73.75
48424;BME280;34232;42.502;26.014;2022-08-23T06:09:03;99468.72;;;27.23;73.98
48424;BME280;34232;42.502;26.014;2022-08-23T06:11:29;99467.47;;;27.31;73.80
48424;BME280;34232;42.502;26.014;2022-08-23T06:13:56;99471.88;;;27.37;72.64
48424;BME280;34232;42.502;26.014;2022-08-23T06:16:23;99470.72;;;27.33;73.50
48424;BME280;34232;42.502;26.014;2022-08-23T06:18:49;99476.63;;;27.30;74.76
48424;BME280;34232;42.502;26.014;2022-08-23T06:21:15;99470.59;;;27.23;75.70
48424;BME280;34232;42.502;26.014;2022-08-23T06:23:40;99476.00;;;27.23;73.68
48424;BME280;34232;42.502;26.014;2022-08-23T06:26:09;99475.53;;;27.26;73.41
48424;BME280;34232;42.502;26.014;2022-08-23T06:28:35;99485.75;;;27.24;72.80
48424;BME280;34232;42.502;26.014;2022-08-23T06:31:00;99481.72;;;27.43;73.96
48424;BME280;34232;42.502;26.014;2022-08-23T06:33:25;99483.38;;;27.49;72.55
48424;BME280;34232;42.502;26.014;2022-08-23T06:35:59;99484.28;;;27.55;73.47
48424;BME280;34232;42.502;26.014;2022-08-23T06:38:26;99477.69;;;27.67;74.85
48424;BME280;34232;42.502;26.014;2022-08-23T06:40:51;99476.53;;;27.58;71.82
48424;BME280;34232;42.502;26.014;2022-08-23T06:43:22;99481.72;;;27.86;72.94
48424;BME280;34232;42.502;26.014;2022-08-23T06:45:48;99484.13;;;28.10;72.77
48424;BME280;34232;42.502;26.014;2022-08-23T06:48:13;99484.69;;;28.12;68.58
48424;BME280;34232;42.502;26.014;2022-08-23T06:50:39;99486.78;;;28.27;68.16
48424;BME280;34232;42.502;26.014;2022-08-23T06:53:04;99484.50;;;28.40;68.27
48424;BME280;34232;42.502;26.014;2022-08-23T06:55:30;99490.56;;;28.52;67.25
48424;BME280;34232;42.502;26.014;2022-08-23T06:57:55;99488.50;;;28.65;67.17
48424;BME280;34232;42.502;26.014;2022-08-23T07:00:21;99488.03;;;28.78;66.28
48424;BME280;34232;42.502;26.014;2022-08-23T07:02:46;99491.25;;;28.70;65.26
48424;BME280;34232;42.502;26.014;2022-08-23T07:05:11;99481.34;;;28.53;66.18
48424;BME280;34232;42.502;26.014;2022-08-23T07:07:37;99492.28;;;28.64;63.28
48424;BME280;34232;42.502;26.014;2022-08-23T07:10:03;99484.38;;;28.89;65.73
48424;BME280;34232;42.502;26.014;2022-08-23T07:12:29;99492.31;;;29.01;59.84
48424;BME280;34232;42.502;26.014;2022-08-23T07:14:54;99492.63;;;29.09;59.12
48424;BME280;34232;42.502;26.014;2022-08-23T07:17:20;99489.47;;;29.22;58.62
48424;BME280;34232;42.502;26.014;2022-08-23T07:19:45;99487.38;;;29.35;57.22
48424;BME280;34232;42.502;26.014;2022-08-23T07:22:11;99492.28;;;29.38;56.72
48424;BME280;34232;42.502;26.014;2022-08-23T07:24:36;99494.34;;;29.20;56.65
48424;BME280;34232;42.502;26.014;2022-08-23T07:27:03;99492.19;;;29.22;57.13
48424;BME280;34232;42.502;26.014;2022-08-23T07:29:30;99494.34;;;29.20;55.99
48424;BME280;34232;42.502;26.014;2022-08-23T07:31:56;99501.00;;;29.40;56.21
48424;BME280;34232;42.502;26.014;2022-08-23T07:34:22;99499.97;;;29.51;55.72
48424;BME280;34232;42.502;26.014;2022-08-23T07:36:48;99496.78;;;29.64;55.09
48424;BME280;34232;42.502;26.014;2022-08-23T07:39:14;99494.09;;;29.69;54.37
48424;BME280;34232;42.502;26.014;2022-08-23T07:41:39;99486.56;;;29.91;53.66
48424;BME280;34232;42.502;26.014;2022-08-23T07:44:06;99489.41;;;30.17;53.51
48424;BME280;34232;42.502;26.014;2022-08-23T07:46:32;99493.47;;;30.30;54.18
48424;BME280;34232;42.502;26.014;2022-08-23T07:48:58;99504.06;;;30.26;51.93
48424;BME280;34232;42.502;26.014;2022-08-23T07:51:25;99495.66;;;30.38;51.74
48424;BME280;34232;42.502;26.014;2022-08-23T07:53:51;99512.31;;;30.67;51.94
48424;BME280;34232;42.502;26.014;2022-08-23T07:56:17;99510.94;;;30.79;49.60
48424;BME280;34232;42.502;26.014;2022-08-23T07:58:43;99509.56;;;30.87;48.54
48424;BME280;34232;42.502;26.014;2022-08-23T08:03:39;99505.50;;;31.00;48.87
48424;BME280;34232;42.502;26.014;2022-08-23T08:06:06;99505.25;;;31.16;46.33
48424;BME280;34232;42.502;26.014;2022-08-23T08:08:32;99498.69;;;31.27;46.29
48424;BME280;34232;42.502;26.014;2022-08-23T08:10:57;99512.25;;;31.38;44.96
48424;BME280;34232;42.502;26.014;2022-08-23T08:13:22;99513.34;;;31.37;44.10
48424;BME280;34232;42.502;26.014;2022-08-23T08:15:47;99510.56;;;31.62;44.26
48424;BME280;34232;42.502;26.014;2022-08-23T08:18:13;99504.47;;;31.85;44.66
48424;BME280;34232;42.502;26.014;2022-08-23T08:20:41;99509.53;;;31.48;43.29
48424;BME280;34232;42.502;26.014;2022-08-23T08:23:07;99516.31;;;31.66;42.55
48424;BME280;34232;42.502;26.014;2022-08-23T08:25:32;99515.69;;;31.79;43.55
48424;BME280;34232;42.502;26.014;2022-08-23T08:27:58;99518.69;;;31.77;43.55
48424;BME280;34232;42.502;26.014;2022-08-23T08:30:23;99509.91;;;31.95;41.76
48424;BME280;34232;42.502;26.014;2022-08-23T08:32:49;99516.84;;;32.17;41.11
48424;BME280;34232;42.502;26.014;2022-08-23T08:35:14;99509.22;;;32.24;40.08
48424;BME280;34232;42.502;26.014;2022-08-23T08:37:39;99502.59;;;32.35;40.29
48424;BME280;34232;42.502;26.014;2022-08-23T08:40:06;99505.75;;;32.52;40.52
48424;BME280;34232;42.502;26.014;2022-08-23T08:45:31;99500.19;;;32.67;40.85
48424;BME280;34232;42.502;26.014;2022-08-23T08:50:39;99489.03;;;32.98;41.04
48424;BME280;34232;42.502;26.014;2022-08-23T08:53:13;99482.81;;;33.21;40.95
48424;BME280;34232;42.502;26.014;2022-08-23T08:55:42;99483.81;;;33.30;38.79
48424;BME280;34232;42.502;26.014;2022-08-23T08:58:11;99473.78;;;33.50;38.43
48424;BME280;34232;42.502;26.014;2022-08-23T09:00:39;99474.66;;;33.16;38.20
48424;BME280;34232;42.502;26.014;2022-08-23T09:03:07;99474.59;;;33.26;37.18
48424;BME280;34232;42.502;26.014;2022-08-23T09:05:36;99464.78;;;33.25;36.97
48424;BME280;34232;42.502;26.014;2022-08-23T09:16:14;99474.34;;;33.47;36.02
48424;BME280;34232;42.502;26.014;2022-08-23T09:18:41;99477.88;;;33.71;37.00
48424;BME280;34232;42.502;26.014;2022-08-23T09:21:07;99468.84;;;33.94;35.40
48424;BME280;34232;42.502;26.014;2022-08-23T09:23:42;99473.50;;;34.13;34.93
48424;BME280;34232;42.502;26.014;2022-08-23T09:26:17;99485.41;;;34.03;35.75
48424;BME280;34232;42.502;26.014;2022-08-23T09:28:42;99483.03;;;33.96;35.93
48424;BME280;34232;42.502;26.014;2022-08-23T09:31:09;99486.81;;;34.00;35.83
48424;BME280;34232;42.502;26.014;2022-08-23T09:33:42;99486.94;;;33.90;35.51
48424;BME280;34232;42.502;26.014;2022-08-23T09:36:15;99474.53;;;34.17;35.89
48424;BME280;34232;42.502;26.014;2022-08-23T09:38:50;99477.03;;;33.94;35.06
48424;BME280;34232;42.502;26.014;2022-08-23T09:41:18;99467.38;;;33.59;35.28
48424;BME280;34232;42.502;26.014;2022-08-23T09:43:45;99469.34;;;33.54;35.85
48424;BME280;34232;42.502;26.014;2022-08-23T09:46:23;99469.34;;;33.54;35.74
48424;BME280;34232;42.502;26.014;2022-08-23T09:48:48;99466.69;;;33.49;36.55
48424;BME280;34232;42.502;26.014;2022-08-23T09:51:29;99469.34;;;33.78;35.52
48424;BME280;34232;42.502;26.014;2022-08-23T09:54:02;99467.31;;;34.07;36.91
48424;BME280;34232;42.502;26.014;2022-08-23T09:56:28;99470.50;;;34.33;35.65
48424;BME280;34232;42.502;26.014;2022-08-23T09:58:55;99468.13;;;34.45;35.30
48424;BME280;34232;42.502;26.014;2022-08-23T10:03:47;99464.31;;;34.79;35.24
48424;BME280;34232;42.502;26.014;2022-08-23T10:06:30;99470.88;;;34.78;34.92
48424;BME280;34232;42.502;26.014;2022-08-23T10:08:55;99462.75;;;34.72;34.38
48424;BME280;34232;42.502;26.014;2022-08-23T10:11:28;99473.69;;;34.72;35.01
48424;BME280;34232;42.502;26.014;2022-08-23T10:13:55;99474.69;;;34.77;34.03
48424;BME280;34232;42.502;26.014;2022-08-23T10:24:07;99465.47;;;34.40;35.09
48424;BME280;34232;42.502;26.014;2022-08-23T10:26:35;99462.59;;;34.31;34.88
48424;BME280;34232;42.502;26.014;2022-08-23T10:39:30;99463.53;;;34.22;36.77
48424;BME280;34232;42.502;26.014;2022-08-23T10:49:18;99454.47;;;34.78;35.81
48424;BME280;34232;42.502;26.014;2022-08-23T10:51:45;99454.81;;;34.90;34.38
48424;BME280;34232;42.502;26.014;2022-08-23T10:54:13;99458.78;;;34.97;34.31
48424;BME280;34232;42.502;26.014;2022-08-23T10:56:40;99457.88;;;35.02;33.89
48424;BME280;34232;42.502;26.014;2022-08-23T10:59:10;99453.28;;;34.84;34.66
48424;BME280;34232;42.502;26.014;2022-08-23T11:01:46;99442.94;;;34.81;34.74
48424;BME280;34232;42.502;26.014;2022-08-23T11:07:14;99453.59;;;34.63;34.46
48424;BME280;34232;42.502;26.014;2022-08-23T11:09:47;99440.19;;;34.11;34.82
48424;BME280;34232;42.502;26.014;2022-08-23T11:15:17;99453.88;;;33.92;37.28
48424;BME280;34232;42.502;26.014;2022-08-23T11:20:53;99446.56;;;34.25;36.70
48424;BME280;34232;42.502;26.014;2022-08-23T11:28:28;99443.53;;;34.08;36.36
48424;BME280;34232;42.502;26.014;2022-08-23T11:30:42;99444.34;;;33.89;36.35
48424;BME280;34232;42.502;26.014;2022-08-23T11:33:12;99438.31;;;33.92;38.86
48424;BME280;34232;42.502;26.014;2022-08-23T11:48:48;99417.09;;;34.41;36.02
48424;BME280;34232;42.502;26.014;2022-08-23T12:01:09;99388.84;;;34.59;36.17
48424;BME280;34232;42.502;26.014;2022-08-23T12:03:55;99396.22;;;34.45;35.98
48424;BME280;34232;42.502;26.014;2022-08-23T12:08:58;99384.28;;;34.41;36.36
48424;BME280;34232;42.502;26.014;2022-08-23T12:16:54;99362.84;;;34.61;36.60
48424;BME280;34232;42.502;26.014;2022-08-23T12:19:27;99357.97;;;34.58;36.91
48424;BME280;34232;42.502;26.014;2022-08-23T12:21:54;99354.34;;;34.77;37.72
48424;BME280;34232;42.502;26.014;2022-08-23T12:24:30;99349.09;;;34.94;36.45
48424;BME280;34232;42.502;26.014;2022-08-23T12:34:49;99358.03;;;35.13;36.31
48424;BME280;34232;42.502;26.014;2022-08-23T12:39:47;99362.47;;;35.09;35.45
48424;BME280;34232;42.502;26.014;2022-08-23T12:42:15;99355.59;;;34.98;36.65
48424;BME280;34232;42.502;26.014;2022-08-23T12:44:45;99362.53;;;34.77;35.79
48424;BME280;34232;42.502;26.014;2022-08-23T12:47:12;99368.66;;;34.73;35.91
48424;BME280;34232;42.502;26.014;2022-08-23T12:49:39;99363.91;;;34.47;36.28
48424;BME280;34232;42.502;26.014;2022-08-23T12:52:06;99363.81;;;34.38;36.32
48424;BME280;34232;42.502;26.014;2022-08-23T12:54:41;99358.03;;;33.88;36.90
48424;BME280;34232;42.502;26.014;2022-08-23T12:57:10;99356.03;;;33.75;38.33
48424;BME280;34232;42.502;26.014;2022-08-23T12:59:41;99353.59;;;33.55;38.13
48424;BME280;34232;42.502;26.014;2022-08-23T13:02:14;99351.16;;;33.53;38.46
48424;BME280;34232;42.502;26.014;2022-08-23T13:04:42;99359.09;;;33.50;38.33
48424;BME280;34232;42.502;26.014;2022-08-23T13:07:09;99352.47;;;33.56;38.32
48424;BME280;34232;42.502;26.014;2022-08-23T13:09:37;99347.59;;;33.53;38.33
48424;BME280;34232;42.502;26.014;2022-08-23T13:12:04;99341.34;;;33.71;38.65
48424;BME280;34232;42.502;26.014;2022-08-23T13:16:55;99333.50;;;33.64;37.77
48424;BME280;34232;42.502;26.014;2022-08-23T13:19:24;99344.97;;;33.85;37.57
48424;BME280;34232;42.502;26.014;2022-08-23T13:24:35;99351.31;;;33.81;37.07
48424;BME280;34232;42.502;26.014;2022-08-23T13:27:18;99348.63;;;33.94;37.21
48424;BME280;34232;42.502;26.014;2022-08-23T13:29:51;99346.88;;;34.03;36.83
48424;BME280;34232;42.502;26.014;2022-08-23T13:32:27;99348.03;;;33.97;38.49
48424;BME280;34232;42.502;26.014;2022-08-23T13:34:53;99350.44;;;33.85;38.38
48424;BME280;34232;42.502;26.014;2022-08-23T13:37:22;99343.41;;;33.79;39.31
48424;BME280;34232;42.502;26.014;2022-08-23T13:39:53;99340.00;;;33.68;38.99
48424;BME280;34232;42.502;26.014;2022-08-23T13:42:23;99339.34;;;33.58;39.09
48424;BME280;34232;42.502;26.014;2022-08-23T13:44:49;99347.44;;;33.63;39.56
48424;BME280;34232;42.502;26.014;2022-08-23T13:47:22;99349.00;;;33.69;39.23
48424;BME280;34232;42.502;26.014;2022-08-23T13:49:48;99341.91;;;33.49;38.38
48424;BME280;34232;42.502;26.014;2022-08-23T13:52:14;99337.84;;;33.47;38.94
48424;BME280;34232;42.502;26.014;2022-08-23T13:54:39;99329.13;;;33.45;39.03
48424;BME280;34232;42.502;26.014;2022-08-23T13:57:05;99331.38;;;33.43;39.32
48424;BME280;34232;42.502;26.014;2022-08-23T13:59:39;99333.69;;;33.30;39.17
48424;BME280;34232;42.502;26.014;2022-08-23T14:02:06;99339.44;;;33.29;39.36
48424;BME280;34232;42.502;26.014;2022-08-23T14:04:33;99341.31;;;33.33;39.33
48424;BME280;34232;42.502;26.014;2022-08-23T14:06:58;99338.53;;;33.39;39.56
48424;BME280;34232;42.502;26.014;2022-08-23T14:09:24;99343.47;;;33.36;39.65
48424;BME280;34232;42.502;26.014;2022-08-23T14:11:51;99342.88;;;33.40;39.37
48424;BME280;34232;42.502;26.014;2022-08-23T14:14:18;99350.06;;;33.30;39.04
48424;BME280;34232;42.502;26.014;2022-08-23T14:16:43;99345.50;;;33.45;39.24
48424;BME280;34232;42.502;26.014;2022-08-23T14:19:09;99337.78;;;33.52;40.00
48424;BME280;34232;42.502;26.014;2022-08-23T14:21:35;99327.81;;;33.61;40.25
48424;BME280;34232;42.502;26.014;2022-08-23T14:24:01;99329.53;;;33.57;39.99
48424;BME280;34232;42.502;26.014;2022-08-23T14:26:26;99319.63;;;33.61;40.27
48424;BME280;34232;42.502;26.014;2022-08-23T14:28:52;99317.69;;;33.61;40.39
48424;BME280;34232;42.502;26.014;2022-08-23T14:31:18;99306.59;;;33.58;40.93
48424;BME280;34232;42.502;26.014;2022-08-23T14:33:44;99293.22;;;33.56;38.90
48424;BME280;34232;42.502;26.014;2022-08-23T14:36:09;99276.63;;;33.53;38.71
48424;BME280;34232;42.502;26.014;2022-08-23T14:38:36;99276.41;;;33.49;38.54
48424;BME280;34232;42.502;26.014;2022-08-23T14:41:02;99281.63;;;33.46;38.13
48424;BME280;34232;42.502;26.014;2022-08-23T14:43:29;99281.03;;;33.49;38.68